createdAt,value
2019-03-09T00:01:22.588Z,45.60
2019-03-09T00:03:57.948Z,45.60
2019-03-09T00:06:33.174Z,45.70
2019-03-09T00:09:09.733Z,45.70
2019-03-09T00:11:44.949Z,45.70
2019-03-09T00:14:20.608Z,45.80
2019-03-09T00:16:55.931Z,45.80
2019-03-09T00:19:31.228Z,45.70
2019-03-09T00:22:06.456Z,45.70
2019-03-09T00:25:06.993Z,46.30
2019-03-09T00:28:07.902Z,45.70
2019-03-09T00:31:02.074Z,45.60
2019-03-09T00:33:37.504Z,45.70
2019-03-09T00:36:12.758Z,45.80
2019-03-09T00:38:48.057Z,46.00
2019-03-09T00:41:23.324Z,45.90
2019-03-09T00:43:58.485Z,46.00
2019-03-09T00:46:33.793Z,46.00
2019-03-09T00:49:11.184Z,46.10
2019-03-09T00:51:46.026Z,46.10
2019-03-09T00:54:21.279Z,46.20
2019-03-09T00:56:56.526Z,46.30
2019-03-09T00:59:31.668Z,46.20
2019-03-09T01:02:06.969Z,46.20
2019-03-09T01:04:42.112Z,46.20
2019-03-09T01:07:17.272Z,46.20
2019-03-09T01:09:52.502Z,46.20
2019-03-09T01:12:27.664Z,46.10
2019-03-09T01:15:02.877Z,46.00
2019-03-09T01:17:38.130Z,46.00
2019-03-09T01:20:15.192Z,46.00
2019-03-09T01:22:50.410Z,46.60
2019-03-09T01:25:25.608Z,46.10
2019-03-09T01:28:00.910Z,46.10
2019-03-09T01:30:36.045Z,46.20
2019-03-09T01:33:11.267Z,46.30
2019-03-09T01:35:46.489Z,46.30
2019-03-09T01:38:21.715Z,46.80
2019-03-09T01:40:56.926Z,46.30
2019-03-09T01:43:32.238Z,46.30
2019-03-09T01:46:07.507Z,46.30
2019-03-09T01:48:42.778Z,46.10
2019-03-09T01:51:17.932Z,46.10
2019-03-09T01:53:53.079Z,46.20
2019-03-09T01:56:28.320Z,46.10
2019-03-09T01:59:03.638Z,46.10
2019-03-09T02:01:38.846Z,46.00
2019-03-09T02:04:14.080Z,46.10
2019-03-09T02:06:49.226Z,46.00
2019-03-09T02:09:24.564Z,46.10
2019-03-09T02:11:59.700Z,46.20
2019-03-09T02:14:34.922Z,46.50
2019-03-09T02:17:10.057Z,46.20
2019-03-09T02:19:45.242Z,46.30
2019-03-09T02:22:20.389Z,46.40
2019-03-09T02:24:55.548Z,46.50
2019-03-09T02:27:30.752Z,46.40
2019-03-09T02:30:06.457Z,46.60
2019-03-09T02:32:41.620Z,46.60
2019-03-09T02:35:16.899Z,46.70
2019-03-09T02:37:52.085Z,46.90
2019-03-09T02:40:27.181Z,46.90
2019-03-09T02:43:02.388Z,46.50
2019-03-09T02:45:37.609Z,46.90
2019-03-09T02:48:12.860Z,46.90
2019-03-09T02:50:57.315Z,46.70
2019-03-09T02:53:32.547Z,46.70
2019-03-09T02:56:07.833Z,46.70
2019-03-09T02:58:42.966Z,46.80
2019-03-09T03:01:43.112Z,46.90
2019-03-09T03:04:18.323Z,47.00
2019-03-09T03:06:53.892Z,47.00
2019-03-09T03:09:29.025Z,47.10
2019-03-09T03:12:04.299Z,47.10
2019-03-09T03:14:39.594Z,47.10
2019-03-09T03:17:14.846Z,47.20
2019-03-09T03:19:50.058Z,47.30
2019-03-09T03:22:25.475Z,47.30
2019-03-09T03:25:00.748Z,47.30
2019-03-09T03:27:36.388Z,47.30
2019-03-09T03:30:11.699Z,47.30
2019-03-09T03:32:46.913Z,47.40
2019-03-09T03:35:22.170Z,47.50
2019-03-09T03:37:57.403Z,47.50
2019-03-09T03:40:32.623Z,47.50
2019-03-09T03:43:07.868Z,47.50
2019-03-09T03:45:43.101Z,47.60
2019-03-09T03:48:18.399Z,47.70
2019-03-09T03:50:53.617Z,47.80
2019-03-09T03:53:28.928Z,47.80
2019-03-09T03:56:04.135Z,47.90
2019-03-09T03:58:39.212Z,48.00
2019-03-09T04:01:14.481Z,48.00
2019-03-09T04:03:49.693Z,48.00
2019-03-09T04:06:24.958Z,48.00
2019-03-09T04:09:00.189Z,48.10
2019-03-09T04:11:35.552Z,48.10
2019-03-09T04:14:10.822Z,48.20
2019-03-09T04:16:46.113Z,48.60
2019-03-09T04:19:21.329Z,48.10
2019-03-09T04:21:56.466Z,48.30
2019-03-09T04:24:31.708Z,48.30
2019-03-09T04:27:06.945Z,48.30
2019-03-09T04:29:42.261Z,49.00
2019-03-09T04:32:17.481Z,48.40
2019-03-09T04:34:52.711Z,48.40
2019-03-09T04:37:27.988Z,48.40
2019-03-09T04:40:03.222Z,48.50
2019-03-09T04:42:38.416Z,48.50
2019-03-09T04:45:13.771Z,48.40
2019-03-09T04:47:48.912Z,48.50
2019-03-09T04:50:24.177Z,48.50
2019-03-09T04:52:59.461Z,48.50
2019-03-09T04:55:34.711Z,48.60
2019-03-09T04:58:09.931Z,48.70
2019-03-09T05:00:45.065Z,48.80
2019-03-09T05:03:20.220Z,48.80
2019-03-09T05:05:55.446Z,48.70
2019-03-09T05:08:55.660Z,48.70
2019-03-09T05:11:32.152Z,48.70
2019-03-09T05:14:10.441Z,48.70
2019-03-09T05:16:45.697Z,48.80
2019-03-09T05:19:20.926Z,48.90
2019-03-09T05:21:56.147Z,48.80
2019-03-09T05:24:31.284Z,48.80
2019-03-09T05:27:06.459Z,49.00
2019-03-09T05:29:41.598Z,49.10
2019-03-09T05:32:16.759Z,49.10
2019-03-09T05:34:51.986Z,49.20
2019-03-09T05:37:27.282Z,49.20
2019-03-09T05:40:02.435Z,49.50
2019-03-09T05:42:37.600Z,49.50
2019-03-09T05:45:12.742Z,49.60
2019-03-09T05:47:47.901Z,49.70
2019-03-09T05:50:23.112Z,49.80
2019-03-09T05:53:11.196Z,49.90
2019-03-09T05:55:46.405Z,49.90
2019-03-09T05:58:21.651Z,50.00
2019-03-09T06:00:56.946Z,50.00
2019-03-09T06:03:32.089Z,50.00
2019-03-09T06:06:15.545Z,50.10
2019-03-09T06:08:51.535Z,50.10
2019-03-09T06:11:26.771Z,50.10
2019-03-09T06:14:01.953Z,50.20
2019-03-09T06:16:37.104Z,50.30
2019-03-09T06:19:12.351Z,50.30
2019-03-09T06:21:47.650Z,50.40
2019-03-09T06:24:22.928Z,50.40
2019-03-09T06:26:58.080Z,51.00
2019-03-09T06:29:33.368Z,50.50
2019-03-09T06:32:44.477Z,50.40
2019-03-09T06:35:19.901Z,50.40
2019-03-09T06:38:05.972Z,50.50
2019-03-09T06:40:41.129Z,50.60
2019-03-09T06:43:16.345Z,50.60
2019-03-09T06:45:51.585Z,50.70
2019-03-09T06:48:26.799Z,51.00
2019-03-09T06:51:02.037Z,51.00
2019-03-09T06:53:37.249Z,51.00
2019-03-09T06:56:12.508Z,51.00
2019-03-09T06:58:47.675Z,51.20
2019-03-09T07:01:23.371Z,51.10
2019-03-09T07:03:58.512Z,51.10
2019-03-09T07:06:33.744Z,51.00
2019-03-09T07:09:08.897Z,51.10
2019-03-09T07:11:44.145Z,51.20
2019-03-09T07:15:09.611Z,51.30
2019-03-09T07:17:44.851Z,52.20
2019-03-09T07:20:20.057Z,51.60
2019-03-09T07:22:55.303Z,51.40
2019-03-09T07:25:30.504Z,51.40
2019-03-09T07:28:13.471Z,51.40
2019-03-09T07:30:48.718Z,51.50
2019-03-09T07:33:23.977Z,51.50
2019-03-09T07:35:59.214Z,51.50
2019-03-09T07:38:34.356Z,51.70
2019-03-09T07:41:09.493Z,52.50
2019-03-09T07:43:44.646Z,52.20
2019-03-09T07:46:19.872Z,52.30
2019-03-09T07:48:55.078Z,52.40
2019-03-09T07:51:30.356Z,52.40
2019-03-09T07:54:05.637Z,52.50
2019-03-09T07:56:40.789Z,52.50
2019-03-09T07:59:15.961Z,52.50
2019-03-09T08:01:51.169Z,52.60
2019-03-09T08:04:26.396Z,52.50
2019-03-09T08:07:01.535Z,52.80
2019-03-09T08:09:36.693Z,52.60
2019-03-09T08:12:11.839Z,52.40
2019-03-09T08:14:47.069Z,52.40
2019-03-09T08:17:24.852Z,52.50
2019-03-09T08:20:00.254Z,52.30
2019-03-09T08:22:35.548Z,52.40
2019-03-09T08:25:11.288Z,52.60
2019-03-09T08:27:46.417Z,52.50
2019-03-09T08:30:22.813Z,52.50
2019-03-09T08:32:58.021Z,52.60
2019-03-09T08:35:33.308Z,52.60
2019-03-09T08:38:08.583Z,52.90
2019-03-09T08:40:43.901Z,52.90
2019-03-09T08:43:19.110Z,52.30
2019-03-09T08:45:54.393Z,52.20
2019-03-09T08:48:29.552Z,52.00
2019-03-09T08:51:04.776Z,52.00
2019-03-09T08:53:39.950Z,52.00
2019-03-09T08:56:15.251Z,51.90
2019-03-09T08:58:53.410Z,51.90
2019-03-09T09:01:28.701Z,52.00
2019-03-09T09:04:03.929Z,51.80
2019-03-09T09:06:39.166Z,52.00
2019-03-09T09:09:14.469Z,52.20
2019-03-09T09:11:49.713Z,52.30
2019-03-09T09:14:24.886Z,52.30
2019-03-09T09:17:00.139Z,52.20
2019-03-09T09:19:35.434Z,52.10
2019-03-09T09:22:10.730Z,52.20
2019-03-09T09:24:45.875Z,52.40
2019-03-09T09:27:21.045Z,52.20
2019-03-09T09:29:56.255Z,52.40
2019-03-09T09:32:31.573Z,52.40
2019-03-09T09:35:08.400Z,52.50
2019-03-09T09:37:43.686Z,52.30
2019-03-09T09:40:20.194Z,51.90
2019-03-09T09:42:55.618Z,51.80
2019-03-09T09:45:30.821Z,51.70
2019-03-09T09:48:06.081Z,51.80
2019-03-09T09:50:41.263Z,52.10
2019-03-09T09:53:23.530Z,52.00
2019-03-09T09:55:58.794Z,52.00
2019-03-09T09:58:34.037Z,52.10
2019-03-09T10:01:09.247Z,51.80
2019-03-09T10:03:44.473Z,51.60
2019-03-09T10:06:19.633Z,51.40
2019-03-09T10:08:55.025Z,51.30
2019-03-09T10:11:30.253Z,51.10
2019-03-09T10:14:05.669Z,51.10
2019-03-09T10:16:40.801Z,51.20
2019-03-09T10:19:15.978Z,51.50
2019-03-09T10:21:51.109Z,50.90
2019-03-09T10:24:26.359Z,51.00
2019-03-09T10:27:01.497Z,50.80
2019-03-09T10:29:36.652Z,51.00
2019-03-09T10:32:11.796Z,51.20
2019-03-09T10:34:46.972Z,51.40
2019-03-09T10:37:22.197Z,51.00
2019-03-09T10:39:57.427Z,51.40
2019-03-09T10:42:32.575Z,51.10
2019-03-09T10:45:08.388Z,51.00
2019-03-09T10:47:43.600Z,51.10
2019-03-09T10:50:18.870Z,50.70
2019-03-09T10:52:54.006Z,51.00
2019-03-09T10:55:29.445Z,50.20
2019-03-09T10:58:04.551Z,50.20
2019-03-09T11:00:39.780Z,50.10
2019-03-09T11:03:14.992Z,50.00
2019-03-09T11:05:50.156Z,49.90
2019-03-09T11:08:25.296Z,49.50
2019-03-09T11:11:00.554Z,49.60
2019-03-09T11:13:35.839Z,49.60
2019-03-09T11:16:11.003Z,49.60
2019-03-09T11:18:46.150Z,49.50
2019-03-09T11:21:21.465Z,48.70
2019-03-09T11:23:56.709Z,49.00
2019-03-09T11:26:31.949Z,49.10
2019-03-09T11:29:07.170Z,48.70
2019-03-09T11:31:42.384Z,48.70
2019-03-09T11:34:20.410Z,48.60
2019-03-09T11:36:56.085Z,48.80
2019-03-09T11:39:32.684Z,47.50
2019-03-09T11:42:08.339Z,47.80
2019-03-09T11:44:43.650Z,47.80
2019-03-09T11:47:18.969Z,47.20
2019-03-09T11:49:54.108Z,46.90
2019-03-09T11:52:29.394Z,46.50
2019-03-09T11:55:05.010Z,45.70
2019-03-09T11:57:40.273Z,46.20
2019-03-09T12:00:19.170Z,45.40
2019-03-09T12:02:54.546Z,45.60
2019-03-09T12:05:29.684Z,45.10
2019-03-09T12:08:04.895Z,45.00
2019-03-09T12:10:40.118Z,45.20
2019-03-09T12:13:15.446Z,44.60
2019-03-09T12:15:50.721Z,43.90
2019-03-09T12:18:25.981Z,43.40
2019-03-09T12:21:01.164Z,43.70
2019-03-09T12:23:36.761Z,43.70
2019-03-09T12:26:11.910Z,44.10
2019-03-09T12:28:47.174Z,44.00
2019-03-09T12:31:22.312Z,43.60
2019-03-09T12:36:42.064Z,42.70
2019-03-09T12:39:17.325Z,43.20
2019-03-09T12:41:52.727Z,43.00
2019-03-09T12:44:27.996Z,43.20
2019-03-09T12:47:03.624Z,43.40
2019-03-09T12:49:38.889Z,42.80
2019-03-09T12:52:14.052Z,43.20
2019-03-09T12:54:49.205Z,43.20
2019-03-09T12:57:27.860Z,43.10
2019-03-09T13:00:03.062Z,43.00
2019-03-09T13:02:38.358Z,43.00
2019-03-09T13:05:13.784Z,43.10
2019-03-09T13:07:49.169Z,43.10
2019-03-09T13:10:24.505Z,43.10
2019-03-09T13:12:59.672Z,42.70
2019-03-09T13:15:34.871Z,42.80
2019-03-09T13:18:10.195Z,43.20
2019-03-09T13:20:45.396Z,43.20
2019-03-09T13:23:20.626Z,43.30
2019-03-09T13:25:55.834Z,43.30
2019-03-09T13:28:31.065Z,43.60
2019-03-09T13:31:06.296Z,43.30
2019-03-09T13:33:41.556Z,43.10
2019-03-09T13:36:16.783Z,42.70
2019-03-09T13:38:52.027Z,42.70
2019-03-09T13:41:27.239Z,42.60
2019-03-09T13:44:02.465Z,42.70
2019-03-09T13:46:37.742Z,42.70
2019-03-09T13:49:12.937Z,42.60
2019-03-09T13:51:48.072Z,42.00
2019-03-09T13:54:23.308Z,42.20
2019-03-09T13:56:58.521Z,42.50
2019-03-09T13:59:33.758Z,41.80
2019-03-09T14:02:08.899Z,41.70
2019-03-09T14:04:44.064Z,42.10
2019-03-09T14:07:19.279Z,42.20
2019-03-09T14:09:54.452Z,42.40
2019-03-09T14:12:29.644Z,42.40
2019-03-09T14:15:05.137Z,42.10
2019-03-09T14:17:40.358Z,41.90
2019-03-09T14:20:15.699Z,42.00
2019-03-09T14:22:50.815Z,41.90
2019-03-09T14:25:26.038Z,41.70
2019-03-09T14:28:01.250Z,41.30
2019-03-09T14:30:36.400Z,41.80
2019-03-09T14:33:11.626Z,41.50
2019-03-09T14:35:46.884Z,41.20
2019-03-09T14:38:22.125Z,41.20
2019-03-09T14:40:57.414Z,41.30
2019-03-09T14:43:32.549Z,41.30
2019-03-09T14:46:07.858Z,41.10
2019-03-09T14:48:43.006Z,41.50
2019-03-09T14:51:18.269Z,41.20
2019-03-09T14:53:53.474Z,41.40
2019-03-09T14:56:28.820Z,41.50
2019-03-09T14:59:04.068Z,41.40
2019-03-09T15:01:39.230Z,41.20
2019-03-09T15:04:14.502Z,41.20
2019-03-09T15:06:49.729Z,41.10
2019-03-09T15:09:25.006Z,41.50
2019-03-09T15:12:00.529Z,41.30
2019-03-09T15:14:35.730Z,40.90
2019-03-09T15:17:10.889Z,40.90
2019-03-09T15:19:46.167Z,41.20
2019-03-09T15:22:21.468Z,41.20
2019-03-09T15:24:56.606Z,41.20
2019-03-09T15:27:31.828Z,41.20
2019-03-09T15:30:10.226Z,41.40
2019-03-09T15:32:45.501Z,41.40
2019-03-09T15:35:20.721Z,41.30
2019-03-09T15:37:55.972Z,41.40
2019-03-09T15:40:31.102Z,41.50
2019-03-09T15:43:06.396Z,41.40
2019-03-09T15:45:41.589Z,41.40
2019-03-09T15:48:16.841Z,41.40
2019-03-09T15:50:52.033Z,41.50
2019-03-09T15:53:27.265Z,41.20
2019-03-09T15:56:02.542Z,41.20
2019-03-09T15:58:37.756Z,41.50
2019-03-09T16:01:12.874Z,41.50
2019-03-09T16:03:49.400Z,41.50
2019-03-09T16:06:24.654Z,41.50
2019-03-09T16:08:59.815Z,41.30
2019-03-09T16:11:44.373Z,41.30
2019-03-09T16:14:11.850Z,41.50
2019-03-09T16:16:46.969Z,41.70
2019-03-09T16:19:22.271Z,41.90
2019-03-09T16:21:57.414Z,42.20
2019-03-09T16:24:32.692Z,42.20
2019-03-09T16:27:07.956Z,42.40
2019-03-09T16:29:43.189Z,42.30
2019-03-09T16:32:18.424Z,42.40
2019-03-09T16:34:53.640Z,42.40
2019-03-09T16:37:28.852Z,42.50
2019-03-09T16:40:04.145Z,42.70
2019-03-09T16:42:39.278Z,42.70
2019-03-09T16:45:14.640Z,42.80
2019-03-09T16:47:49.772Z,43.10
2019-03-09T16:50:24.958Z,43.00
2019-03-09T16:53:00.084Z,43.20
2019-03-09T16:55:35.229Z,43.20
2019-03-09T16:58:10.425Z,43.20
2019-03-09T17:00:45.654Z,43.30
2019-03-09T17:03:20.943Z,43.40
2019-03-09T17:05:56.162Z,43.40
2019-03-09T17:08:31.285Z,43.70
2019-03-09T17:11:06.578Z,43.90
2019-03-09T17:13:41.710Z,44.00
2019-03-09T17:16:16.868Z,44.10
2019-03-09T17:18:52.076Z,43.80
2019-03-09T17:21:27.229Z,43.50
2019-03-09T17:24:02.429Z,43.40
2019-03-09T17:26:37.703Z,43.60
2019-03-09T17:29:12.905Z,43.70
2019-03-09T17:31:48.056Z,43.70
2019-03-09T17:34:23.266Z,44.00
2019-03-09T17:36:58.568Z,44.10
2019-03-09T17:39:33.749Z,44.40
2019-03-09T17:42:09.111Z,44.50
2019-03-09T17:44:44.224Z,44.80
2019-03-09T17:47:19.439Z,44.90
2019-03-09T17:49:54.579Z,44.80
2019-03-09T17:52:29.753Z,44.80
2019-03-09T17:55:04.999Z,45.00
2019-03-09T17:57:48.232Z,44.60
2019-03-09T18:00:22.078Z,45.00
2019-03-09T18:02:57.331Z,45.00
2019-03-09T18:05:32.590Z,45.10
2019-03-09T18:08:07.736Z,45.20
2019-03-09T18:10:45.902Z,45.20
2019-03-09T18:13:21.065Z,45.20
2019-03-09T18:15:56.272Z,45.20
2019-03-09T18:18:31.588Z,45.40
2019-03-09T18:21:06.802Z,45.50
2019-03-09T18:23:42.128Z,45.40
2019-03-09T18:26:17.339Z,45.50
2019-03-09T18:28:52.625Z,45.60
2019-03-09T18:31:27.832Z,45.60
2019-03-09T18:34:03.866Z,45.80
2019-03-09T18:36:39.136Z,45.70
2019-03-09T18:39:14.356Z,45.80
2019-03-09T18:41:49.580Z,45.90
2019-03-09T18:44:24.732Z,46.10
2019-03-09T18:46:59.873Z,46.20
2019-03-09T18:49:35.085Z,46.10
2019-03-09T18:52:10.242Z,46.00
2019-03-09T18:54:45.429Z,46.00
2019-03-09T18:57:20.624Z,45.90
2019-03-09T18:59:55.845Z,46.00
2019-03-09T19:02:31.084Z,45.90
2019-03-09T19:05:06.464Z,46.00
2019-03-09T19:07:41.596Z,45.90
2019-03-09T19:10:16.762Z,46.10
2019-03-09T19:12:51.954Z,45.90
2019-03-09T19:15:27.180Z,45.90
2019-03-09T19:18:02.369Z,45.80
2019-03-09T19:20:37.647Z,45.70
2019-03-09T19:23:12.840Z,45.60
2019-03-09T19:25:48.125Z,45.60
2019-03-09T19:28:23.288Z,45.70
2019-03-09T19:30:58.440Z,45.50
2019-03-09T19:33:33.537Z,45.30
2019-03-09T19:36:08.808Z,45.30
2019-03-09T19:38:44.129Z,45.20
2019-03-09T19:41:19.397Z,45.40
2019-03-09T19:43:54.592Z,44.70
2019-03-09T19:46:29.739Z,44.80
2019-03-09T19:49:04.992Z,44.60
2019-03-09T19:51:40.261Z,44.80
2019-03-09T19:54:15.774Z,44.40
2019-03-09T19:56:51.067Z,44.50
2019-03-09T19:59:26.293Z,44.60
2019-03-09T20:02:01.436Z,44.40
2019-03-09T20:04:36.570Z,44.30
2019-03-09T20:07:11.801Z,44.00
2019-03-09T20:09:46.928Z,44.50
2019-03-09T20:12:22.100Z,43.60
2019-03-09T20:14:57.333Z,44.00
2019-03-09T20:17:32.561Z,43.90
2019-03-09T20:20:08.720Z,43.60
2019-03-09T20:22:43.912Z,43.90
2019-03-09T20:25:19.107Z,43.90
2019-03-09T20:27:54.449Z,43.80
2019-03-09T20:30:29.781Z,43.70
2019-03-09T20:33:04.963Z,43.60
2019-03-09T20:35:40.165Z,43.80
2019-03-09T20:38:15.482Z,43.50
2019-03-09T20:40:50.712Z,43.60
2019-03-09T20:43:25.965Z,43.40
2019-03-09T20:46:01.109Z,43.20
2019-03-09T20:48:36.408Z,43.40
2019-03-09T20:51:11.609Z,43.10
2019-03-09T20:53:48.567Z,43.20
2019-03-09T20:56:23.818Z,42.80
2019-03-09T20:58:59.400Z,43.20
2019-03-09T21:01:46.152Z,43.70
2019-03-09T21:04:21.497Z,43.10
2019-03-09T21:06:56.672Z,43.10
2019-03-09T21:09:31.913Z,42.90
2019-03-09T21:12:07.111Z,42.40
2019-03-09T21:14:42.430Z,42.00
2019-03-09T21:17:17.613Z,42.50
2019-03-09T21:19:52.780Z,42.50
2019-03-09T21:22:27.910Z,42.50
2019-03-09T21:25:03.238Z,42.90
2019-03-09T21:27:38.452Z,42.00
2019-03-09T21:30:14.364Z,42.00
2019-03-09T21:32:49.573Z,42.10
2019-03-09T21:35:24.818Z,41.80
2019-03-09T21:38:00.018Z,41.90
2019-03-09T21:40:35.166Z,41.80
2019-03-09T21:43:10.293Z,41.70
2019-03-09T21:45:45.433Z,41.70
2019-03-09T21:48:20.575Z,41.20
2019-03-09T21:50:55.733Z,41.40
2019-03-09T21:53:30.941Z,41.60
2019-03-09T21:56:06.155Z,41.50
2019-03-09T21:58:41.298Z,41.70
2019-03-09T22:01:16.557Z,41.60
2019-03-09T22:03:51.745Z,41.50
2019-03-09T22:06:26.901Z,41.70
2019-03-09T22:09:02.117Z,41.80
2019-03-09T22:11:37.418Z,41.80
2019-03-09T22:14:12.620Z,41.70
2019-03-09T22:16:56.239Z,41.70
2019-03-09T22:19:24.758Z,41.50
2019-03-09T22:21:59.988Z,41.50
2019-03-09T22:24:35.124Z,41.70
2019-03-09T22:27:10.269Z,41.80
2019-03-09T22:29:45.400Z,41.30
2019-03-09T22:32:20.562Z,41.50
2019-03-09T22:34:55.865Z,41.30
2019-03-09T22:37:31.093Z,41.50
2019-03-09T22:40:06.760Z,41.60
2019-03-09T22:42:41.930Z,41.50
2019-03-09T22:45:17.253Z,41.40
2019-03-09T22:47:52.504Z,41.30
2019-03-09T22:50:27.645Z,41.20
2019-03-09T22:53:02.802Z,41.50
2019-03-09T22:55:38.641Z,41.30
2019-03-09T22:58:13.864Z,41.40
2019-03-09T23:00:49.082Z,41.20
2019-03-09T23:03:24.407Z,41.20
2019-03-09T23:05:59.552Z,41.40
2019-03-09T23:08:34.705Z,41.20
2019-03-09T23:11:09.843Z,41.10
2019-03-09T23:13:45.077Z,41.20
2019-03-09T23:16:20.205Z,41.30
2019-03-09T23:18:55.506Z,41.40
2019-03-09T23:21:30.703Z,41.70
2019-03-09T23:24:05.939Z,41.10
2019-03-09T23:26:43.925Z,41.30
2019-03-09T23:29:19.145Z,41.30
2019-03-09T23:31:54.425Z,41.50
2019-03-09T23:34:29.662Z,41.50
2019-03-09T23:37:04.860Z,41.40
2019-03-09T23:39:40.088Z,41.50
2019-03-09T23:42:15.506Z,41.40
2019-03-09T23:44:50.745Z,41.50
2019-03-09T23:47:25.953Z,41.20
2019-03-09T23:50:01.174Z,41.40
2019-03-09T23:52:36.329Z,41.40
2019-03-09T23:55:21.210Z,41.40
2019-03-09T23:57:49.532Z,41.40
